Time;durP1;ratioP1;P1;durP2;ratioP2;P2;SDS_P1;SDS_P2;PMS_P1;PMS_P2;Temp;Humidity;BMP_temperature;BMP_pressure;BME280_temperature;BME280_humidity;BME280_pressure;Samples;Min_cycle;Max_cycle;Signal;HPM_P1;HPM_P2
2023/05/22 00:03:03;;;;;;;11.98;4.63;;;;;;;20.39;43.99;101499.22;16113304;19;130125;-37
2023/05/22 00:08:26;;;;;;;8.02;4.47;;;;;;;20.37;43.99;101484.72;16113740;19;131403;-38
2023/05/22 00:13:50;;;;;;;5.57;3.90;;;;;;;20.34;43.96;101491.63;16116022;19;129780;-38
2023/05/22 00:19:15;;;;;;;7.93;4.28;;;;;;;20.35;43.87;101489.69;16113569;19;131603;-38
2023/05/22 00:24:37;;;;;;;9.25;3.88;;;;;;;20.34;43.86;101482.44;16112885;19;130466;-38
2023/05/22 00:29:59;;;;;;;7.57;4.03;;;;;;;20.34;43.64;101479.66;16112127;19;130862;-38
2023/05/22 00:35:22;;;;;;;5.97;4.07;;;;;;;20.32;43.74;101484.59;16110040;19;129434;-38
2023/05/22 00:40:44;;;;;;;8.88;4.28;;;;;;;20.32;43.80;101487.38;16112428;19;129763;-38
2023/05/22 00:46:06;;;;;;;7.25;4.00;;;;;;;20.31;43.36;101483.78;16113435;19;129626;-39
2023/05/22 00:51:28;;;;;;;5.85;4.15;;;;;;;20.29;43.71;101474.81;16109394;19;132318;-42
2023/05/22 00:56:50;;;;;;;8.80;4.50;;;;;;;20.27;43.56;101472.31;16108969;19;130728;-39
2023/05/22 01:02:15;;;;;;;9.13;3.92;;;;;;;20.27;43.75;101460.31;16106915;19;130889;-38
2023/05/22 01:07:37;;;;;;;6.78;3.65;;;;;;;20.27;43.22;101457.56;16111374;19;129436;-38
2023/05/22 01:13:11;;;;;;;11.43;4.25;;;;;;;20.26;43.68;101465.06;16110643;19;130477;-39
2023/05/22 01:19:01;;;;;;;7.80;4.10;;;;;;;20.26;43.50;101450.31;16110437;19;129870;-38
2023/05/22 01:24:51;;;;;;;7.53;3.70;;;;;;;20.24;43.40;101450.56;16113923;19;131442;-40
2023/05/22 01:30:35;;;;;;;6.20;3.70;;;;;;;20.23;43.45;101454.44;16109991;19;131204;-38
2023/05/22 01:36:00;;;;;;;7.20;4.15;;;;;;;20.22;43.46;101449.97;16108297;19;132076;-42
2023/05/22 01:41:23;;;;;;;6.67;3.57;;;;;;;20.20;43.22;101452.13;16111596;19;131307;-40
2023/05/22 01:46:45;;;;;;;7.18;4.00;;;;;;;20.19;43.38;101442.09;16108088;19;135636;-40
2023/05/22 01:52:18;;;;;;;5.90;3.92;;;;;;;20.21;43.37;101434.38;16106541;19;130637;-39
2023/05/22 01:58:01;;;;;;;7.90;4.03;;;;;;;20.20;43.63;101438.22;16109418;19;129583;-38
2023/05/22 02:03:28;;;;;;;7.70;3.95;;;;;;;20.19;43.15;101447.66;16105017;19;130009;-41
2023/05/22 02:08:52;;;;;;;6.15;3.78;;;;;;;20.18;43.52;101443.22;16110010;19;130678;-39
2023/05/22 02:14:14;;;;;;;6.82;3.88;;;;;;;20.16;43.14;101437.06;16106805;19;129209;-38
2023/05/22 02:19:36;;;;;;;7.68;4.20;;;;;;;20.15;43.32;101457.59;16095065;19;132301;-39
2023/05/22 02:24:58;;;;;;;7.88;4.78;;;;;;;20.14;43.43;101456.72;16125947;19;129789;-41
2023/05/22 02:30:20;;;;;;;7.93;4.68;;;;;;;20.13;42.99;101438.38;16123371;19;129720;-39
2023/05/22 02:35:43;;;;;;;8.38;4.50;;;;;;;20.13;43.02;101443.09;16120285;19;129900;-39
2023/05/22 02:41:06;;;;;;;7.80;3.90;;;;;;;20.12;43.44;101441.41;16121976;19;130627;-39
2023/05/22 02:46:28;;;;;;;6.75;4.47;;;;;;;20.11;43.16;101442.50;16120203;19;129774;-42
2023/05/22 02:51:50;;;;;;;7.88;4.28;;;;;;;20.09;43.38;101431.63;16121210;19;131821;-40
2023/05/22 02:57:12;;;;;;;7.97;4.57;;;;;;;20.10;43.20;101421.34;16119490;19;130265;-41
2023/05/22 03:02:35;;;;;;;6.38;3.92;;;;;;;20.09;43.42;101428.00;16118652;19;129688;-41
2023/05/22 03:07:57;;;;;;;8.57;4.68;;;;;;;20.08;43.16;101418.84;16118987;19;130537;-42
2023/05/22 03:13:19;;;;;;;7.30;4.18;;;;;;;20.08;43.18;101429.09;16115930;19;129430;-39
2023/05/22 03:18:41;;;;;;;8.60;4.05;;;;;;;20.08;42.96;101421.59;16117745;19;129853;-41
2023/05/22 03:24:04;;;;;;;6.80;4.15;;;;;;;20.07;43.10;101433.81;16118102;19;130388;-39
2023/05/22 03:29:26;;;;;;;5.47;3.15;;;;;;;20.07;42.80;101435.72;16118872;19;130573;-41
2023/05/22 03:34:47;;;;;;;7.00;3.97;;;;;;;20.06;43.12;101434.06;16113503;19;130710;-41
2023/05/22 03:40:09;;;;;;;6.22;3.50;;;;;;;20.05;43.09;101418.47;16118504;19;129982;-40
2023/05/22 03:45:31;;;;;;;7.10;3.58;;;;;;;20.04;42.92;101417.63;16119701;19;129603;-43
2023/05/22 03:50:53;;;;;;;8.48;3.78;;;;;;;20.05;43.09;101418.47;16111551;19;129765;-39
2023/05/22 03:56:15;;;;;;;9.00;4.00;;;;;;;20.04;43.27;101414.84;16117333;19;130199;-40
2023/05/22 04:01:37;;;;;;;8.43;4.78;;;;;;;20.03;42.83;101413.16;16115639;19;129912;-41
2023/05/22 04:07:01;;;;;;;7.07;3.65;;;;;;;20.02;43.07;101413.41;16116348;19;130558;-39
2023/05/22 04:12:23;;;;;;;6.10;3.35;;;;;;;20.01;43.34;101428.38;16114686;19;130513;-39
2023/05/22 04:17:46;;;;;;;5.32;3.88;;;;;;;20.02;42.98;101430.06;16112465;19;132521;-44
2023/05/22 04:23:08;;;;;;;7.40;4.10;;;;;;;20.00;42.86;101416.41;16114745;19;130430;-39
2023/05/22 04:28:30;;;;;;;7.05;4.32;;;;;;;19.99;42.87;101432.25;16114571;19;129685;-40
2023/05/22 04:33:53;;;;;;;8.73;4.97;;;;;;;19.98;43.24;101436.06;16109437;19;130049;-39
2023/05/22 04:39:15;;;;;;;6.97;4.38;;;;;;;19.98;43.03;101441.63;16108558;19;130874;-43
2023/05/22 04:44:37;;;;;;;7.43;4.57;;;;;;;19.99;43.02;101453.59;16108999;19;131841;-42
2023/05/22 04:50:01;;;;;;;6.72;3.95;;;;;;;19.98;42.75;101447.19;16111390;19;131144;-39
2023/05/22 04:55:23;;;;;;;4.88;3.47;;;;;;;19.97;42.86;101453.81;16105582;19;129503;-41
2023/05/22 05:00:45;;;;;;;7.90;4.00;;;;;;;19.97;43.06;101445.50;16108563;19;131335;-41
2023/05/22 05:06:07;;;;;;;7.28;3.65;;;;;;;19.96;42.81;101443.78;16107180;19;132081;-41
2023/05/22 05:11:29;;;;;;;9.05;4.22;;;;;;;19.96;42.91;101449.34;16108195;19;129759;-42
2023/05/22 05:16:52;;;;;;;7.03;4.05;;;;;;;19.97;43.22;101447.44;16109110;19;130410;-43
2023/05/22 05:22:14;;;;;;;6.75;3.40;;;;;;;19.95;43.37;101450.44;16106530;19;130965;-44
2023/05/22 05:27:36;;;;;;;10.02;4.25;;;;;;;19.98;43.58;101446.34;16105885;19;129547;-39
2023/05/22 05:32:58;;;;;;;14.32;5.57;;;;;;;20.00;43.37;101449.72;16101009;19;130028;-39
2023/05/22 05:38:19;;;;;;;16.02;6.00;;;;;;;20.03;43.97;101449.25;16104144;19;130990;-40
2023/05/22 05:43:41;;;;;;;16.80;6.57;;;;;;;20.06;44.13;101453.50;16108842;19;131247;-39
2023/05/22 05:49:10;;;;;;;15.05;6.40;;;;;;;20.07;43.98;101460.72;16106326;19;130500;-39
2023/05/22 05:54:32;;;;;;;18.00;6.43;;;;;;;20.06;44.24;101462.66;16110505;19;129591;-40
2023/05/22 05:59:54;;;;;;;11.23;5.90;;;;;;;20.06;44.31;101471.00;16121179;19;129558;-39
2023/05/22 06:05:17;;;;;;;20.52;7.32;;;;;;;20.08;44.14;101467.97;16118809;19;132986;-42
2023/05/22 06:10:40;;;;;;;14.52;8.35;;;;;;;20.08;44.01;101471.59;16123000;19;131925;-40
2023/05/22 06:16:02;;;;;;;16.85;8.75;;;;;;;20.08;43.90;101462.41;16122293;19;129077;-43
2023/05/22 06:21:27;;;;;;;16.70;9.03;;;;;;;20.09;44.33;101466.88;16120776;19;130859;-40
2023/05/22 06:26:48;;;;;;;17.63;11.48;;;;;;;20.09;43.94;101472.44;16124713;19;129573;-41
2023/05/22 06:32:10;;;;;;;14.90;8.93;;;;;;;20.09;43.87;101475.22;16121389;19;129392;-40
2023/05/22 06:37:34;;;;;;;25.23;11.00;;;;;;;20.08;44.26;101485.50;16122721;19;129546;-41
2023/05/22 06:42:57;;;;;;;18.48;10.70;;;;;;;20.10;43.99;101493.56;16115621;19;129365;-40
2023/05/22 06:48:19;;;;;;;18.38;10.73;;;;;;;20.10;44.06;101494.44;16116510;19;129517;-39
2023/05/22 06:53:41;;;;;;;18.98;10.30;;;;;;;20.10;44.01;101507.47;16115437;19;131679;-40
2023/05/22 06:59:03;;;;;;;17.98;9.88;;;;;;;20.11;44.13;101507.25;16116658;19;130008;-43
2023/05/22 07:04:26;;;;;;;17.63;10.30;;;;;;;20.12;44.16;101510.84;16116244;19;130668;-40
2023/05/22 07:09:48;;;;;;;16.77;10.93;;;;;;;20.11;43.88;101518.34;16114539;19;131346;-43
2023/05/22 07:15:13;;;;;;;23.80;13.63;;;;;;;20.12;44.12;101519.19;16111048;19;129922;-40
2023/05/22 07:20:38;;;;;;;21.90;12.70;;;;;;;20.13;44.25;101520.88;16116010;19;130922;-41
2023/05/22 07:26:00;;;;;;;22.63;13.50;;;;;;;20.12;43.72;101528.34;16116989;19;130021;-42
2023/05/22 07:31:22;;;;;;;25.85;14.45;;;;;;;20.13;43.91;101531.97;16117131;19;129746;-39
2023/05/22 07:36:44;;;;;;;24.83;15.30;;;;;;;20.13;44.19;101534.75;16114090;19;130231;-41
2023/05/22 07:42:06;;;;;;;28.30;15.88;;;;;;;20.14;43.75;101528.13;16119138;19;131097;-38
2023/05/22 07:47:28;;;;;;;27.55;17.65;;;;;;;20.13;44.13;101531.97;16114877;19;130982;-38
2023/05/22 07:52:50;;;;;;;27.75;18.52;;;;;;;20.14;44.00;101539.22;16119682;19;130315;-40
2023/05/22 07:58:12;;;;;;;25.80;17.35;;;;;;;20.15;44.18;101546.47;16115963;19;129553;-39
2023/05/22 08:03:34;;;;;;;33.03;19.15;;;;;;;20.15;43.76;101552.03;16117579;19;129509;-39
2023/05/22 08:08:56;;;;;;;28.50;18.77;;;;;;;20.16;44.17;101559.28;16115437;19;130428;-39
2023/05/22 08:14:20;;;;;;;34.85;21.30;;;;;;;20.16;44.21;101559.28;16109055;19;129540;-38
2023/05/22 08:19:42;;;;;;;35.55;23.38;;;;;;;20.16;44.12;101564.84;16111557;19;130372;-39
2023/05/22 08:25:05;;;;;;;32.78;23.08;;;;;;;20.16;44.34;101564.84;16113427;19;131722;-38
2023/05/22 08:30:27;;;;;;;38.80;27.00;;;;;;;20.16;44.19;101570.41;16114953;19;130300;-39
2023/05/22 08:35:49;;;;;;;41.00;27.92;;;;;;;20.15;43.83;101563.16;16114261;19;132794;-38
2023/05/22 08:41:12;;;;;;;41.88;28.80;;;;;;;20.13;43.92;101570.88;16113499;19;129844;-40
2023/05/22 08:46:36;;;;;;;46.55;29.67;;;;;;;20.12;44.01;101580.28;16110703;19;129894;-40
2023/05/22 08:52:11;;;;;;;74.22;45.78;;;;;;;20.03;44.06;101578.97;16110466;19;130717;-40
2023/05/22 08:57:34;;;;;;;62.05;40.35;;;;;;;20.01;44.05;101583.91;16110032;19;130999;-41
2023/05/22 09:02:56;;;;;;;63.42;39.80;;;;;;;20.05;44.28;101568.47;16107747;19;130942;-38
2023/05/22 09:08:19;;;;;;;57.45;38.25;;;;;;;20.06;44.02;101564.59;16107477;19;131590;-41
2023/05/22 09:13:43;;;;;;;56.65;37.40;;;;;;;20.07;44.26;101581.00;16112540;19;129945;-39
2023/05/22 09:19:05;;;;;;;53.17;37.00;;;;;;;20.08;43.89;101565.19;16112756;19;130919;-39
2023/05/22 09:24:27;;;;;;;57.40;37.47;;;;;;;20.09;43.85;101564.09;16114130;19;129238;-38
2023/05/22 09:29:51;;;;;;;53.85;37.42;;;;;;;20.11;44.17;101567.47;16120928;19;129590;-39
2023/05/22 09:35:13;;;;;;;55.78;38.58;;;;;;;20.13;44.15;101568.09;16130522;19;129662;-39
2023/05/22 09:40:41;;;;;;;57.17;37.53;;;;;;;20.14;44.17;101567.84;16126366;19;129408;-38
2023/05/22 09:46:03;;;;;;;52.60;36.40;;;;;;;20.16;43.86;101575.97;16128018;19;130292;-38
2023/05/22 09:51:26;;;;;;;48.78;34.78;;;;;;;20.17;44.12;101568.44;16118571;19;130550;-39
2023/05/22 09:56:49;;;;;;;51.17;34.22;;;;;;;20.20;43.93;101570.75;16126005;19;129325;-39
2023/05/22 10:02:12;;;;;;;49.83;35.72;;;;;;;20.21;43.88;101578.84;16121164;19;130402;-41
2023/05/22 10:07:40;;;;;;;66.07;39.55;;;;;;;20.22;43.99;101574.97;16126684;19;129203;-42
2023/05/22 10:13:05;;;;;;;55.22;37.95;;;;;;;20.25;44.14;101577.28;16124734;19;131145;-39
2023/05/22 10:18:27;;;;;;;;;;;;;;;20.25;44.57;101566.16;16126626;19;130201;-39
2023/05/22 10:23:51;;;;;;;52.45;33.78;;;;;;;20.31;44.34;101569.06;16121960;19;130394;-38
2023/05/22 10:29:21;;;;;;;44.08;31.13;;;;;;;20.35;44.50;101573.03;16123529;19;130093;-39
2023/05/22 10:34:55;;;;;;;48.05;30.70;;;;;;;20.38;44.24;101559.50;16121168;19;129790;-38
2023/05/22 10:40:27;;;;;;;48.55;30.65;;;;;;;20.41;44.34;101550.69;16116449;19;129700;-48
2023/05/22 10:46:01;;;;;;;47.15;29.88;;;;;;;20.48;44.62;101547.78;16119467;19;130668;-41
2023/05/22 10:51:23;;;;;;;50.03;29.63;;;;;;;20.52;44.90;101545.34;16116971;19;130478;-40
2023/05/22 10:56:45;;;;;;;50.97;31.08;;;;;;;20.55;44.88;101540.16;16114110;19;129347;-39
2023/05/22 11:02:28;;;;;;;45.85;30.40;;;;;;;20.59;45.26;101546.91;16120521;19;129404;-39
2023/05/22 11:07:50;;;;;;;51.45;32.08;;;;;;;20.60;45.28;101548.59;16121036;19;129456;-43
2023/05/22 11:13:12;;;;;;;52.10;31.73;;;;;;;20.62;45.21;101553.06;16116721;19;129394;-46
2023/05/22 11:18:34;;;;;;;48.90;33.22;;;;;;;20.65;45.39;101555.38;16123324;19;129862;-40
2023/05/22 11:23:59;;;;;;;55.97;34.67;;;;;;;20.67;45.34;101539.28;16118241;19;130847;-40
2023/05/22 11:29:22;;;;;;;48.53;34.20;;;;;;;20.70;45.75;101541.56;16121585;19;129585;-42
2023/05/22 11:34:45;;;;;;;52.80;36.88;;;;;;;20.69;45.40;101548.22;16119095;19;131939;-40
2023/05/22 11:40:09;;;;;;;55.08;38.25;;;;;;;20.69;45.54;101539.88;16122411;19;129539;-41
2023/05/22 11:45:36;;;;;;;51.42;37.33;;;;;;;20.71;46.13;101529.34;16119392;19;129699;-39
2023/05/22 11:50:58;;;;;;;51.70;35.85;;;;;;;20.72;45.98;101528.25;16115003;19;129485;-38
2023/05/22 11:56:23;;;;;;;44.42;33.65;;;;;;;20.73;46.16;101529.97;16104632;19;129497;-39
2023/05/22 12:01:48;;;;;;;47.22;33.75;;;;;;;20.76;45.90;101532.28;16116653;19;129912;-39
2023/05/22 12:07:11;;;;;;;52.58;33.58;;;;;;;20.75;46.12;101522.22;16114958;19;130364;-39
2023/05/22 12:12:33;;;;;;;57.00;34.33;;;;;;;20.75;46.10;101522.22;16117315;19;130567;-39
2023/05/22 12:17:55;;;;;;;51.15;33.28;;;;;;;20.76;46.15;101521.16;16115933;19;130884;-39
2023/05/22 12:23:24;;;;;;;50.65;33.42;;;;;;;20.78;45.93;101515.34;16114534;19;130102;-39
2023/05/22 12:28:46;;;;;;;51.40;32.78;;;;;;;20.78;46.48;101510.66;16117591;19;131527;-39
2023/05/22 12:34:08;;;;;;;43.97;30.63;;;;;;;20.79;46.38;101511.47;16114317;19;129380;-40
2023/05/22 12:39:30;;;;;;;44.17;31.52;;;;;;;20.78;46.23;101504.22;16113521;19;131784;-43
2023/05/22 12:44:53;;;;;;;43.40;31.75;;;;;;;20.79;46.40;101511.47;16116071;19;129958;-40
2023/05/22 12:50:15;;;;;;;43.58;29.88;;;;;;;20.79;46.56;101509.56;16115429;19;130499;-39
2023/05/22 12:55:37;;;;;;;44.45;30.33;;;;;;;20.79;46.64;101509.56;16109525;19;130891;-40
2023/05/22 13:00:59;;;;;;;43.47;30.77;;;;;;;20.80;46.29;101508.44;16113030;19;130641;-39
2023/05/22 13:06:21;;;;;;;42.03;31.13;;;;;;;20.81;46.34;101498.16;16109918;19;129147;-39
2023/05/22 13:11:43;;;;;;;45.80;30.98;;;;;;;20.81;46.38;101499.00;16109942;19;130467;-39
2023/05/22 13:17:05;;;;;;;42.42;31.73;;;;;;;20.82;46.41;101502.66;16115241;19;129624;-39
2023/05/22 13:22:27;;;;;;;48.25;31.63;;;;;;;20.83;46.81;101496.81;16114716;19;129174;-40
2023/05/22 13:27:49;;;;;;;43.08;31.55;;;;;;;20.84;46.93;101504.06;16115886;19;129641;-40
2023/05/22 13:33:12;;;;;;;42.88;30.20;;;;;;;20.85;46.73;101500.22;16111664;19;129241;-39
2023/05/22 13:38:34;;;;;;;47.22;30.50;;;;;;;20.85;47.01;101499.38;16108631;19;130156;-42
2023/05/22 13:43:56;;;;;;;43.47;28.42;;;;;;;20.87;47.12;101502.72;16108209;19;132236;-38
2023/05/22 13:49:18;;;;;;;40.88;28.33;;;;;;;20.88;46.85;101498.84;16108780;19;130733;-43
2023/05/22 13:54:40;;;;;;;41.97;25.85;;;;;;;20.87;46.67;101491.59;16104907;19;130026;-39
2023/05/22 14:00:02;;;;;;;40.33;26.23;;;;;;;20.86;46.69;101509.41;16098553;19;131185;-38
2023/05/22 14:05:24;;;;;;;40.70;26.13;;;;;;;20.85;47.02;101511.34;16103935;19;129538;-39
2023/05/22 14:10:46;;;;;;;38.38;24.17;;;;;;;20.87;46.82;101520.28;16106656;19;129568;-39
2023/05/22 14:16:08;;;;;;;39.97;24.45;;;;;;;20.88;46.95;101504.41;16118002;19;130035;-39
2023/05/22 14:21:30;;;;;;;36.65;23.75;;;;;;;20.89;46.67;101506.13;16128881;19;129627;-38
2023/05/22 14:26:56;;;;;;;37.50;22.00;;;;;;;20.89;46.68;101501.41;16122851;19;129654;-39
2023/05/22 14:32:18;;;;;;;35.70;22.35;;;;;;;20.88;46.52;101505.28;16122726;19;129322;-39
2023/05/22 14:37:40;;;;;;;35.97;21.80;;;;;;;20.90;46.70;101505.88;16119557;19;131908;-38
2023/05/22 14:43:02;;;;;;;34.63;21.17;;;;;;;20.92;46.79;101515.91;16118857;19;129744;-40
2023/05/22 14:48:25;;;;;;;32.40;21.13;;;;;;;20.90;46.65;101518.94;16122701;19;129544;-39
2023/05/22 14:53:47;;;;;;;36.00;21.70;;;;;;;20.96;46.96;101528.22;16120879;19;129737;-39
2023/05/22 14:59:10;;;;;;;32.72;19.02;;;;;;;20.95;46.83;101532.09;16120829;19;129356;-39
2023/05/22 15:04:32;;;;;;;33.65;20.65;;;;;;;20.97;46.48;101543.81;16116941;19;130882;-39
2023/05/22 15:09:55;;;;;;;29.85;19.25;;;;;;;20.98;46.83;101542.72;16122865;19;130600;-41
2023/05/22 15:15:17;;;;;;;33.42;19.48;;;;;;;20.95;46.73;101544.06;16108064;19;130315;-39
2023/05/22 15:20:39;;;;;;;27.30;17.58;;;;;;;20.94;46.71;101547.09;16115298;19;129913;-38
2023/05/22 15:26:01;;;;;;;36.50;18.63;;;;;;;20.96;46.82;101544.91;16112952;19;129441;-39
2023/05/22 15:31:23;;;;;;;28.38;16.73;;;;;;;20.96;47.23;101539.34;16115967;19;129623;-38
2023/05/22 15:36:44;;;;;;;27.05;17.10;;;;;;;20.96;47.32;101540.19;16116960;19;133861;-39
2023/05/22 15:42:06;;;;;;;40.05;19.60;;;;;;;20.96;47.56;101543.00;16112004;19;130093;-38
2023/05/22 15:47:29;;;;;;;43.35;19.95;;;;;;;20.97;48.11;101549.38;16113797;19;129170;-39
2023/05/22 15:52:50;;;;;;;47.83;20.73;;;;;;;20.97;48.52;101558.59;16116613;19;131717;-38
2023/05/22 15:58:12;;;;;;;44.10;19.45;;;;;;;20.97;48.44;101557.72;16114874;19;129611;-39
2023/05/22 16:03:34;;;;;;;42.10;19.60;;;;;;;20.95;48.60;101549.63;16115348;19;130098;-38
2023/05/22 16:08:56;;;;;;;41.10;18.27;;;;;;;20.96;48.36;101556.03;16117001;19;129329;-38
2023/05/22 16:14:18;;;;;;;37.58;19.50;;;;;;;20.98;48.24;101553.84;16112546;19;129845;-38
2023/05/22 16:19:40;;;;;;;45.55;18.88;;;;;;;20.98;48.13;101549.16;16110854;19;130318;-38
2023/05/22 16:25:02;;;;;;;38.67;19.67;;;;;;;20.96;48.07;101559.69;16099577;19;131207;-38
2023/05/22 16:30:24;;;;;;;40.03;18.45;;;;;;;20.98;47.83;101560.28;16087775;19;131524;-39
2023/05/22 16:35:46;;;;;;;36.38;16.80;;;;;;;21.02;47.72;101560.63;16101086;19;130313;-38
2023/05/22 16:41:08;;;;;;;34.17;17.52;;;;;;;21.03;47.55;101562.31;16098345;19;130573;-39
2023/05/22 16:46:30;;;;;;;39.20;17.92;;;;;;;21.08;48.09;101558.78;16106026;19;132473;-43
2023/05/22 16:51:52;;;;;;;44.00;18.25;;;;;;;21.13;47.78;101559.72;16108447;19;130420;-40
2023/05/22 16:57:14;;;;;;;44.65;22.45;;;;;;;21.15;47.83;101554.78;16109156;19;129648;-38
2023/05/22 17:02:37;;;;;;;47.42;24.20;;;;;;;21.18;47.83;101556.19;16107581;19;130423;-38
2023/05/22 17:07:59;;;;;;;52.67;23.38;;;;;;;21.17;47.88;101558.13;16104969;19;129961;-41
2023/05/22 17:13:21;;;;;;;60.33;26.55;;;;;;;21.20;48.62;101557.63;16105952;19;130906;-38
2023/05/22 17:18:43;;;;;;;58.30;26.23;;;;;;;21.24;49.09;101559.94;16108655;19;130347;-39
2023/05/22 17:24:05;;;;;;;62.95;26.30;;;;;;;21.27;49.51;101556.66;16109794;19;131516;-38
2023/05/22 17:29:27;;;;;;;79.10;40.17;;;;;;;21.32;49.95;101568.72;16108142;19;129906;-42
2023/05/22 17:34:49;;;;;;;98.10;45.13;;;;;;;21.33;50.45;101567.63;16102465;19;130799;-39
2023/05/22 17:40:11;;;;;;;89.70;41.22;;;;;;;21.31;49.95;101578.16;16106703;19;129893;-38
2023/05/22 17:45:33;;;;;;;71.80;35.58;;;;;;;21.30;49.82;101575.63;16101694;19;130841;-41
2023/05/22 17:50:55;;;;;;;81.43;35.97;;;;;;;21.28;50.05;101583.38;16112780;19;129582;-39
2023/05/22 17:56:17;;;;;;;71.05;34.53;;;;;;;21.24;50.09;101577.44;16120742;19;130989;-38
2023/05/22 18:01:39;;;;;;;64.07;32.40;;;;;;;21.20;49.81;101581.84;16122125;19;130907;-41
2023/05/22 18:07:01;;;;;;;65.95;31.25;;;;;;;21.19;50.26;101582.94;16120915;19;131098;-39
2023/05/22 18:12:23;;;;;;;72.57;29.63;;;;;;;21.17;50.21;101585.94;16121195;19;130640;-40
2023/05/22 18:17:52;;;;;;;64.95;29.38;;;;;;;21.14;50.35;101578.13;16121664;19;129277;-39
2023/05/22 18:23:14;;;;;;;74.13;27.17;;;;;;;21.11;50.04;101577.78;16119122;19;129445;-39
2023/05/22 18:28:36;;;;;;;60.78;26.45;;;;;;;21.08;50.27;101581.88;16124309;19;130618;-38
2023/05/22 18:33:58;;;;;;;64.70;26.48;;;;;;;21.05;50.02;101582.34;16121246;19;129403;-38
2023/05/22 18:39:20;;;;;;;65.10;25.20;;;;;;;21.03;50.12;101579.00;16121086;19;130159;-39
2023/05/22 18:44:42;;;;;;;59.95;24.33;;;;;;;21.01;49.91;101589.53;16121974;19;129219;-39
2023/05/22 18:50:05;;;;;;;60.95;24.20;;;;;;;20.98;49.93;101592.78;16119723;19;129614;-39
2023/05/22 18:55:27;;;;;;;55.40;21.45;;;;;;;20.94;49.93;101599.94;16120273;19;129643;-38
2023/05/22 19:00:50;;;;;;;45.13;20.38;;;;;;;20.89;49.98;101595.97;16118381;19;130968;-38
2023/05/22 19:06:12;;;;;;;64.57;20.52;;;;;;;20.88;49.95;101599.84;16114744;19;129912;-39
2023/05/22 19:11:35;;;;;;;63.70;21.17;;;;;;;20.88;50.24;101605.41;16105275;19;129882;-38
2023/05/22 19:16:59;;;;;;;51.60;19.38;;;;;;;20.87;50.72;101609.28;16119420;19;131625;-38
2023/05/22 19:22:22;;;;;;;55.50;20.57;;;;;;;20.86;50.26;101610.34;16118570;19;130785;-40
2023/05/22 19:27:46;;;;;;;45.15;19.35;;;;;;;20.86;50.05;101624.25;16115987;19;134070;-38
2023/05/22 19:33:09;;;;;;;48.60;17.90;;;;;;;20.85;50.13;101630.91;16114306;19;130668;-38
2023/05/22 19:38:31;;;;;;;44.17;18.88;;;;;;;20.86;49.83;101634.56;16116369;19;129598;-38
2023/05/22 19:43:54;;;;;;;45.03;17.00;;;;;;;20.85;49.84;101641.22;16112814;19;129269;-38
2023/05/22 19:49:15;;;;;;;43.33;17.17;;;;;;;20.83;50.47;101649.78;16115665;19;129459;-38
2023/05/22 19:54:38;;;;;;;40.30;16.25;;;;;;;20.83;50.37;101648.94;16116361;19;131143;-38
2023/05/22 20:00:01;;;;;;;32.70;15.00;;;;;;;20.81;50.01;101654.72;16112366;19;129625;-44
2023/05/22 20:05:23;;;;;;;44.22;16.60;;;;;;;20.80;50.26;101672.50;16113158;19;130676;-39
2023/05/22 20:10:46;;;;;;;37.97;14.68;;;;;;;20.78;50.33;101680.28;16112376;19;130378;-38
2023/05/22 20:16:11;;;;;;;31.17;14.30;;;;;;;20.79;50.07;101695.88;16107835;19;132332;-39
2023/05/22 20:21:33;;;;;;;;;;;;;;;20.75;50.15;101712.16;16113561;19;129958;-39
2023/05/22 20:26:55;;;;;;;34.60;12.23;;;;;;;20.79;49.89;101715.34;16110951;19;130544;-38
2023/05/22 20:32:17;;;;;;;34.25;12.48;;;;;;;20.77;50.72;101720.28;16107894;19;130836;-38
2023/05/22 20:37:40;;;;;;;61.90;12.32;;;;;;;20.78;49.86;101715.56;16079434;19;131879;-38
2023/05/22 20:43:02;;;;;;;34.13;11.90;;;;;;;20.74;49.98;101726.28;16086871;19;130837;-38
2023/05/22 20:48:24;;;;;;;30.98;11.38;;;;;;;20.71;49.76;101732.31;16095647;19;129672;-39
2023/05/22 20:53:51;;;;;;;25.33;11.38;;;;;;;20.67;49.71;101742.25;16106713;19;129839;-38
2023/05/22 20:59:13;;;;;;;28.00;11.38;;;;;;;20.64;49.78;101746.34;16104038;19;130838;-38
2023/05/22 21:04:35;;;;;;;30.48;12.48;;;;;;;20.59;49.52;101747.06;16103777;19;131314;-39
2023/05/22 21:09:57;;;;;;;27.25;11.43;;;;;;;20.57;49.39;101759.53;16104627;19;129391;-38
2023/05/22 21:15:19;;;;;;;19.65;10.00;;;;;;;20.53;49.35;101759.16;16105322;19;129412;-38
2023/05/22 21:20:41;;;;;;;29.55;10.82;;;;;;;20.51;49.25;101761.31;16108842;19;129712;-38
2023/05/22 21:26:03;;;;;;;21.48;10.32;;;;;;;20.49;49.17;101771.00;16114864;19;131449;-39
2023/05/22 21:31:25;;;;;;;21.05;10.40;;;;;;;20.47;49.08;101764.81;16130524;19;129911;-38
2023/05/22 21:36:48;;;;;;;23.75;9.55;;;;;;;20.45;49.20;101778.94;16123880;19;129746;-39
2023/05/22 21:42:10;;;;;;;26.95;10.02;;;;;;;20.44;49.06;101793.91;16127521;19;129814;-39
2023/05/22 21:47:32;;;;;;;20.83;9.75;;;;;;;20.41;48.82;101797.19;16123184;19;129463;-39
2023/05/22 21:52:54;;;;;;;17.15;9.82;;;;;;;20.40;48.72;101803.84;16119651;19;130287;-38
2023/05/22 21:58:16;;;;;;;19.17;9.40;;;;;;;20.38;48.64;101811.56;16120004;19;130478;-41
2023/05/22 22:03:38;;;;;;;15.57;9.60;;;;;;;20.37;48.91;101824.59;16121216;19;131627;-38
2023/05/22 22:09:02;;;;;;;19.00;10.25;;;;;;;20.34;48.49;101832.56;16119073;19;130234;-38
2023/05/22 22:14:24;;;;;;;23.67;10.73;;;;;;;20.32;48.65;101831.94;16117664;19;129628;-38
2023/05/22 22:19:46;;;;;;;22.27;10.55;;;;;;;20.31;48.51;101849.72;16117859;19;131438;-38
2023/05/22 22:25:08;;;;;;;24.42;11.88;;;;;;;20.27;48.19;101860.44;16115183;19;130805;-38
2023/05/22 22:30:30;;;;;;;21.15;12.25;;;;;;;20.24;47.76;101861.78;16118826;19;131736;-37
2023/05/22 22:35:52;;;;;;;23.67;13.15;;;;;;;20.23;48.11;101864.78;16121629;19;129495;-38
2023/05/22 22:41:14;;;;;;;25.13;15.07;;;;;;;20.21;47.52;101873.34;16114826;19;130285;-39
2023/05/22 22:46:36;;;;;;;29.88;16.23;;;;;;;20.18;47.45;101868.28;16119937;19;129381;-38
2023/05/22 22:51:58;;;;;;;23.88;15.15;;;;;;;20.17;47.65;101869.34;16114774;19;129466;-39
2023/05/22 22:57:20;;;;;;;25.83;15.82;;;;;;;20.16;47.53;101887.09;16115449;19;129616;-40
2023/05/22 23:02:42;;;;;;;21.70;15.10;;;;;;;20.15;47.55;101890.97;16112727;19;130825;-41
2023/05/22 23:08:04;;;;;;;23.45;15.85;;;;;;;20.15;47.23;101868.72;16114963;19;132042;-39
2023/05/22 23:13:26;;;;;;;24.52;15.10;;;;;;;20.14;47.26;101876.22;16115965;19;130324;-38
2023/05/22 23:18:48;;;;;;;21.83;14.77;;;;;;;20.14;47.08;101883.72;16114482;19;129688;-39
2023/05/22 23:24:10;;;;;;;23.38;14.25;;;;;;;20.12;47.17;101878.38;16109854;19;135235;-38
2023/05/22 23:29:32;;;;;;;24.85;14.40;;;;;;;20.13;47.43;101870.91;16113301;19;129471;-38
2023/05/22 23:34:53;;;;;;;20.60;13.50;;;;;;;20.13;47.34;101870.91;16112451;19;131319;-38
2023/05/22 23:40:15;;;;;;;18.00;13.10;;;;;;;20.12;47.28;101870.03;16113525;19;131914;-38
2023/05/22 23:45:37;;;;;;;15.50;11.88;;;;;;;20.13;47.29;101876.44;16115823;19;130975;-38
2023/05/22 23:51:01;;;;;;;20.00;12.73;;;;;;;20.13;47.51;101879.22;16113479;19;131280;-38
2023/05/22 23:56:23;;;;;;;19.25;12.63;;;;;;;20.12;47.12;101874.75;16114301;19;131141;-39
